sensor_id;sensor_type;location;lat;lon;timestamp;pressure;altitude;pressure_sealevel;temperature;humidity
66021;BME280;52789;59.980;30.346;2024-03-23T00:54:41;99110.28;;;2.78;100.00
66021;BME280;52789;59.980;30.346;2024-03-23T00:57:07;99104.88;;;2.80;100.00
66021;BME280;52789;59.980;30.346;2024-03-23T00:59:32;99105.69;;;2.80;100.00
66021;BME280;52789;59.980;30.346;2024-03-23T01:01:58;99091.91;;;2.87;100.00
66021;BME280;52789;59.980;30.346;2024-03-23T01:04:23;99099.53;;;2.90;100.00
66021;BME280;52789;59.980;30.346;2024-03-23T01:06:48;99086.38;;;2.90;100.00
66021;BME280;52789;59.980;30.346;2024-03-23T01:09:14;99089.06;;;2.98;100.00
66021;BME280;52789;59.980;30.346;2024-03-23T01:11:39;99082.81;;;2.99;100.00
66021;BME280;52789;59.980;30.346;2024-03-23T01:14:05;99074.47;;;3.03;100.00
66021;BME280;52789;59.980;30.346;2024-03-23T01:16:31;99063.94;;;3.03;100.00
66021;BME280;52789;59.980;30.346;2024-03-23T01:18:57;99071.16;;;3.01;100.00
66021;BME280;52789;59.980;30.346;2024-03-23T01:21:22;99061.63;;;3.00;100.00
66021;BME280;52789;59.980;30.346;2024-03-23T01:23:47;99052.25;;;2.98;100.00
66021;BME280;52789;59.980;30.346;2024-03-23T01:26:13;99049.25;;;2.93;100.00
66021;BME280;52789;59.980;30.346;2024-03-23T01:28:40;99047.75;;;2.90;100.00
66021;BME280;52789;59.980;30.346;2024-03-23T01:31:05;99041.69;;;2.90;100.00
66021;BME280;52789;59.980;30.346;2024-03-23T01:33:30;99030.84;;;2.93;100.00
66021;BME280;52789;59.980;30.346;2024-03-23T01:35:55;99022.13;;;2.92;100.00
66021;BME280;52789;59.980;30.346;2024-03-23T01:38:21;99023.28;;;2.90;100.00
66021;BME280;52789;59.980;30.346;2024-03-23T01:40:46;99015.91;;;2.93;100.00
66021;BME280;52789;59.980;30.346;2024-03-23T01:43:11;99009.50;;;2.96;100.00
66021;BME280;52789;59.980;30.346;2024-03-23T01:45:37;99013.16;;;3.03;100.00
66021;BME280;52789;59.980;30.346;2024-03-23T01:48:02;99005.25;;;3.03;100.00
66021;BME280;52789;59.980;30.346;2024-03-23T01:50:28;98994.91;;;3.01;100.00
66021;BME280;52789;59.980;30.346;2024-03-23T01:52:55;98996.69;;;3.01;100.00
66021;BME280;52789;59.980;30.346;2024-03-23T01:55:21;98986.84;;;3.03;100.00
66021;BME280;52789;59.980;30.346;2024-03-23T01:57:47;98990.13;;;3.05;100.00
66021;BME280;52789;59.980;30.346;2024-03-23T02:00:13;98983.06;;;3.05;100.00
66021;BME280;52789;59.980;30.346;2024-03-23T02:02:45;98978.97;;;3.03;100.00
66021;BME280;52789;59.980;30.346;2024-03-23T02:05:13;98966.47;;;3.05;100.00
66021;BME280;52789;59.980;30.346;2024-03-23T02:07:39;98968.78;;;3.08;100.00
66021;BME280;52789;59.980;30.346;2024-03-23T02:10:09;98971.91;;;3.11;100.00
66021;BME280;52789;59.980;30.346;2024-03-23T02:12:43;98965.50;;;3.14;100.00
66021;BME280;52789;59.980;30.346;2024-03-23T02:15:08;98960.41;;;3.13;100.00
66021;BME280;52789;59.980;30.346;2024-03-23T02:17:34;98965.19;;;3.17;100.00
66021;BME280;52789;59.980;30.346;2024-03-23T02:20:00;98947.47;;;3.19;100.00
66021;BME280;52789;59.980;30.346;2024-03-23T02:22:35;98962.94;;;3.22;100.00
66021;BME280;52789;59.980;30.346;2024-03-23T02:25:02;98953.06;;;3.24;100.00
66021;BME280;52789;59.980;30.346;2024-03-23T02:27:27;98953.88;;;3.25;100.00
66021;BME280;52789;59.980;30.346;2024-03-23T02:29:53;98947.81;;;3.24;100.00
66021;BME280;52789;59.980;30.346;2024-03-23T02:32:18;98948.31;;;3.28;100.00
66021;BME280;52789;59.980;30.346;2024-03-23T02:34:44;98940.91;;;3.31;100.00
66021;BME280;52789;59.980;30.346;2024-03-23T02:37:12;98936.63;;;3.30;100.00
66021;BME280;52789;59.980;30.346;2024-03-23T02:39:37;98943.53;;;3.31;100.00
66021;BME280;52789;59.980;30.346;2024-03-23T02:42:03;98938.28;;;3.31;100.00
66021;BME280;52789;59.980;30.346;2024-03-23T02:44:28;98930.06;;;3.34;100.00
66021;BME280;52789;59.980;30.346;2024-03-23T02:46:53;98930.06;;;3.26;100.00
66021;BME280;52789;59.980;30.346;2024-03-23T02:49:19;98925.44;;;3.28;100.00
66021;BME280;52789;59.980;30.346;2024-03-23T02:51:46;98922.66;;;3.30;100.00
66021;BME280;52789;59.980;30.346;2024-03-23T02:54:13;98929.06;;;3.27;100.00
66021;BME280;52789;59.980;30.346;2024-03-23T02:56:39;98923.81;;;3.27;100.00
66021;BME280;52789;59.980;30.346;2024-03-23T02:59:04;98923.47;;;3.30;100.00
66021;BME280;52789;59.980;30.346;2024-03-23T03:01:29;98916.25;;;3.32;100.00
66021;BME280;52789;59.980;30.346;2024-03-23T03:03:55;98916.41;;;3.39;100.00
66021;BME280;52789;59.980;30.346;2024-03-23T03:06:26;98921.34;;;3.42;100.00
66021;BME280;52789;59.980;30.346;2024-03-23T03:08:52;98916.59;;;3.46;100.00
66021;BME280;52789;59.980;30.346;2024-03-23T03:11:18;98910.34;;;3.47;100.00
66021;BME280;52789;59.980;30.346;2024-03-23T03:13:43;98904.78;;;3.50;100.00
66021;BME280;52789;59.980;30.346;2024-03-23T03:16:11;98900.50;;;3.49;100.00
66021;BME280;52789;59.980;30.346;2024-03-23T03:18:37;98909.38;;;3.48;100.00
66021;BME280;52789;59.980;30.346;2024-03-23T03:21:03;98905.25;;;3.45;100.00
66021;BME280;52789;59.980;30.346;2024-03-23T03:23:30;98899.81;;;3.47;100.00
66021;BME280;52789;59.980;30.346;2024-03-23T03:25:57;98905.44;;;3.52;100.00
66021;BME280;52789;59.980;30.346;2024-03-23T03:28:23;98897.53;;;3.52;100.00
66021;BME280;52789;59.980;30.346;2024-03-23T03:30:48;98892.25;;;3.43;100.00
66021;BME280;52789;59.980;30.346;2024-03-23T03:33:13;98904.41;;;3.36;100.00
66021;BME280;52789;59.980;30.346;2024-03-23T03:35:38;98897.16;;;3.30;100.00
66021;BME280;52789;59.980;30.346;2024-03-23T03:38:04;98895.03;;;3.26;100.00
66021;BME280;52789;59.980;30.346;2024-03-23T03:40:29;98888.63;;;3.28;100.00
66021;BME280;52789;59.980;30.346;2024-03-23T03:42:55;98893.56;;;3.31;100.00
66021;BME280;52789;59.980;30.346;2024-03-23T03:45:21;98875.31;;;3.30;100.00
66021;BME280;52789;59.980;30.346;2024-03-23T03:47:46;98874.97;;;3.25;100.00
66021;BME280;52789;59.980;30.346;2024-03-23T03:50:11;98877.44;;;3.26;100.00
66021;BME280;52789;59.980;30.346;2024-03-23T03:52:37;98880.56;;;3.30;100.00
66021;BME280;52789;59.980;30.346;2024-03-23T03:55:02;98877.75;;;3.31;100.00
66021;BME280;52789;59.980;30.346;2024-03-23T03:57:28;98872.50;;;3.31;100.00
66021;BME280;52789;59.980;30.346;2024-03-23T03:59:54;98864.94;;;3.36;100.00
66021;BME280;52789;59.980;30.346;2024-03-23T04:02:19;98864.44;;;3.41;100.00
66021;BME280;52789;59.980;30.346;2024-03-23T04:04:45;98867.06;;;3.41;100.00
66021;BME280;52789;59.980;30.346;2024-03-23T04:07:10;98872.00;;;3.44;100.00
66021;BME280;52789;59.980;30.346;2024-03-23T04:09:36;98869.75;;;3.49;100.00
66021;BME280;52789;59.980;30.346;2024-03-23T04:12:01;98866.28;;;3.49;100.00
66021;BME280;52789;59.980;30.346;2024-03-23T04:14:26;98864.97;;;3.53;100.00
66021;BME280;52789;59.980;30.346;2024-03-23T04:16:51;98865.47;;;3.56;100.00
66021;BME280;52789;59.980;30.346;2024-03-23T04:19:17;98869.25;;;3.62;100.00
66021;BME280;52789;59.980;30.346;2024-03-23T04:21:42;98861.00;;;3.65;100.00
66021;BME280;52789;59.980;30.346;2024-03-23T04:24:07;98870.38;;;3.67;100.00
66021;BME280;52789;59.980;30.346;2024-03-23T04:26:42;98878.13;;;3.69;100.00
66021;BME280;52789;59.980;30.346;2024-03-23T04:29:08;98882.41;;;3.70;100.00
66021;BME280;52789;59.980;30.346;2024-03-23T04:31:33;98879.44;;;3.65;100.00
66021;BME280;52789;59.980;30.346;2024-03-23T04:34:00;98888.66;;;3.61;100.00
66021;BME280;52789;59.980;30.346;2024-03-23T04:36:25;98893.09;;;3.60;100.00
66021;BME280;52789;59.980;30.346;2024-03-23T04:38:51;98888.97;;;3.58;100.00
66021;BME280;52789;59.980;30.346;2024-03-23T04:41:17;98889.47;;;3.53;100.00
66021;BME280;52789;59.980;30.346;2024-03-23T04:43:43;98892.59;;;3.49;100.00
66021;BME280;52789;59.980;30.346;2024-03-23T04:46:08;98889.97;;;3.49;100.00
66021;BME280;52789;59.980;30.346;2024-03-23T04:48:34;98895.53;;;3.46;100.00
66021;BME280;52789;59.980;30.346;2024-03-23T04:50:59;98888.63;;;3.45;100.00
66021;BME280;52789;59.980;30.346;2024-03-23T04:53:24;98907.03;;;3.36;100.00
66021;BME280;52789;59.980;30.346;2024-03-23T04:55:53;98900.97;;;3.36;100.00
66021;BME280;52789;59.980;30.346;2024-03-23T04:58:19;98900.28;;;3.34;100.00
66021;BME280;52789;59.980;30.346;2024-03-23T05:00:44;98902.59;;;3.37;100.00
66021;BME280;52789;59.980;30.346;2024-03-23T05:03:09;98894.53;;;3.38;100.00
66021;BME280;52789;59.980;30.346;2024-03-23T05:05:35;98898.16;;;3.37;100.00
66021;BME280;52789;59.980;30.346;2024-03-23T05:08:00;98898.97;;;3.38;100.00
66021;BME280;52789;59.980;30.346;2024-03-23T05:10:25;98906.56;;;3.41;100.00
66021;BME280;52789;59.980;30.346;2024-03-23T05:12:51;98906.38;;;3.42;100.00
66021;BME280;52789;59.980;30.346;2024-03-23T05:15:16;98903.91;;;3.41;100.00
66021;BME280;52789;59.980;30.346;2024-03-23T05:17:42;98898.97;;;3.38;100.00
66021;BME280;52789;59.980;30.346;2024-03-23T05:20:07;98901.44;;;3.31;100.00
66021;BME280;52789;59.980;30.346;2024-03-23T05:22:37;98898.81;;;3.31;100.00
66021;BME280;52789;59.980;30.346;2024-03-23T05:25:04;98906.06;;;3.29;100.00
66021;BME280;52789;59.980;30.346;2024-03-23T05:27:33;98910.00;;;3.25;100.00
66021;BME280;52789;59.980;30.346;2024-03-23T05:29:58;98912.28;;;3.28;100.00
66021;BME280;52789;59.980;30.346;2024-03-23T05:32:24;98899.47;;;3.33;100.00
66021;BME280;52789;59.980;30.346;2024-03-23T05:34:49;98907.38;;;3.33;100.00
66021;BME280;52789;59.980;30.346;2024-03-23T05:37:16;98909.66;;;3.36;100.00
66021;BME280;52789;59.980;30.346;2024-03-23T05:39:42;98898.50;;;3.42;100.00
66021;BME280;52789;59.980;30.346;2024-03-23T05:42:07;98904.13;;;3.48;100.00
66021;BME280;52789;59.980;30.346;2024-03-23T05:44:33;98899.00;;;3.46;100.00
66021;BME280;52789;59.980;30.346;2024-03-23T05:46:58;98903.13;;;3.49;100.00
66021;BME280;52789;59.980;30.346;2024-03-23T05:49:24;98899.19;;;3.53;100.00
66021;BME280;52789;59.980;30.346;2024-03-23T05:51:50;98903.28;;;3.47;100.00
66021;BME280;52789;59.980;30.346;2024-03-23T05:54:15;98904.41;;;3.45;100.00
66021;BME280;52789;59.980;30.346;2024-03-23T05:56:40;98915.09;;;3.43;100.00
66021;BME280;52789;59.980;30.346;2024-03-23T05:59:06;98916.09;;;3.42;100.00
66021;BME280;52789;59.980;30.346;2024-03-23T06:01:31;98913.63;;;3.40;100.00
66021;BME280;52789;59.980;30.346;2024-03-23T06:03:57;98913.78;;;3.39;100.00
66021;BME280;52789;59.980;30.346;2024-03-23T06:06:23;98916.91;;;3.42;100.00
66021;BME280;52789;59.980;30.346;2024-03-23T06:08:49;98912.31;;;3.45;100.00
66021;BME280;52789;59.980;30.346;2024-03-23T06:11:14;98911.19;;;3.47;100.00
66021;BME280;52789;59.980;30.346;2024-03-23T06:13:39;98914.66;;;3.48;100.00
66021;BME280;52789;59.980;30.346;2024-03-23T06:16:05;98921.56;;;3.49;100.00
66021;BME280;52789;59.980;30.346;2024-03-23T06:18:30;98918.94;;;3.57;100.00
66021;BME280;52789;59.980;30.346;2024-03-23T06:20:56;98917.94;;;3.66;100.00
66021;BME280;52789;59.980;30.346;2024-03-23T06:23:22;98925.84;;;3.74;100.00
66021;BME280;52789;59.980;30.346;2024-03-23T06:25:50;98924.84;;;3.75;100.00
66021;BME280;52789;59.980;30.346;2024-03-23T06:28:15;98918.91;;;3.73;100.00
66021;BME280;52789;59.980;30.346;2024-03-23T06:30:40;98925.34;;;3.70;100.00
66021;BME280;52789;59.980;30.346;2024-03-23T06:33:06;98923.53;;;3.63;100.00
66021;BME280;52789;59.980;30.346;2024-03-23T06:35:31;98927.16;;;3.62;100.00
66021;BME280;52789;59.980;30.346;2024-03-23T06:37:57;98922.72;;;3.62;100.00
66021;BME280;52789;59.980;30.346;2024-03-23T06:40:23;98925.84;;;3.66;100.00
66021;BME280;52789;59.980;30.346;2024-03-23T06:42:48;98921.38;;;3.74;100.00
66021;BME280;52789;59.980;30.346;2024-03-23T06:45:13;98920.28;;;3.77;100.00
66021;BME280;52789;59.980;30.346;2024-03-23T06:47:39;98923.22;;;3.82;100.00
66021;BME280;52789;59.980;30.346;2024-03-23T06:50:04;98922.56;;;3.88;100.00
66021;BME280;52789;59.980;30.346;2024-03-23T06:52:31;98931.44;;;3.87;100.00
66021;BME280;52789;59.980;30.346;2024-03-23T06:54:57;98923.22;;;3.90;100.00
66021;BME280;52789;59.980;30.346;2024-03-23T06:57:22;98923.22;;;3.98;100.00
66021;BME280;52789;59.980;30.346;2024-03-23T06:59:48;98922.88;;;4.01;100.00
66021;BME280;52789;59.980;30.346;2024-03-23T07:02:13;98929.16;;;4.09;100.00
66021;BME280;52789;59.980;30.346;2024-03-23T07:04:39;98924.19;;;4.14;100.00
66021;BME280;52789;59.980;30.346;2024-03-23T07:07:04;98928.97;;;4.18;100.00
66021;BME280;52789;59.980;30.346;2024-03-23T07:09:30;98933.75;;;4.15;100.00
66021;BME280;52789;59.980;30.346;2024-03-23T07:11:59;98938.03;;;4.08;100.00
66021;BME280;52789;59.980;30.346;2024-03-23T07:14:24;98941.84;;;4.05;100.00
66021;BME280;52789;59.980;30.346;2024-03-23T07:16:50;98939.50;;;4.02;100.00
66021;BME280;52789;59.980;30.346;2024-03-23T07:19:16;98939.84;;;3.99;100.00
66021;BME280;52789;59.980;30.346;2024-03-23T07:21:42;98949.22;;;4.01;100.00
66021;BME280;52789;59.980;30.346;2024-03-23T07:24:07;98948.88;;;3.96;100.00
66021;BME280;52789;59.980;30.346;2024-03-23T07:26:35;98946.25;;;3.96;100.00
66021;BME280;52789;59.980;30.346;2024-03-23T07:29:00;98951.03;;;3.93;100.00
66021;BME280;52789;59.980;30.346;2024-03-23T07:31:27;98940.34;;;3.86;100.00
66021;BME280;52789;59.980;30.346;2024-03-23T07:33:52;98949.22;;;3.85;100.00
66021;BME280;52789;59.980;30.346;2024-03-23T07:36:17;98945.59;;;3.86;100.00
66021;BME280;52789;59.980;30.346;2024-03-23T07:38:43;98947.41;;;3.86;100.00
66021;BME280;52789;59.980;30.346;2024-03-23T07:41:13;98956.97;;;3.87;100.00
66021;BME280;52789;59.980;30.346;2024-03-23T07:43:39;98954.81;;;3.82;100.00
66021;BME280;52789;59.980;30.346;2024-03-23T07:46:05;98957.28;;;3.84;100.00
66021;BME280;52789;59.980;30.346;2024-03-23T07:48:31;98958.13;;;3.76;100.00
66021;BME280;52789;59.980;30.346;2024-03-23T07:51:00;98967.47;;;3.70;100.00
66021;BME280;52789;59.980;30.346;2024-03-23T07:53:27;98976.34;;;3.69;100.00
66021;BME280;52789;59.980;30.346;2024-03-23T07:55:56;98970.91;;;3.71;100.00
66021;BME280;52789;59.980;30.346;2024-03-23T07:58:22;98968.63;;;3.68;100.00
66021;BME280;52789;59.980;30.346;2024-03-23T08:00:47;98973.88;;;3.68;100.00
66021;BME280;52789;59.980;30.346;2024-03-23T08:03:12;98977.84;;;3.72;100.00
66021;BME280;52789;59.980;30.346;2024-03-23T08:05:38;98983.09;;;3.64;100.00
66021;BME280;52789;59.980;30.346;2024-03-23T08:08:03;98984.06;;;3.63;100.00
66021;BME280;52789;59.980;30.346;2024-03-23T08:10:29;98989.34;;;3.55;100.00
66021;BME280;52789;59.980;30.346;2024-03-23T08:12:54;98988.34;;;3.48;100.00
66021;BME280;52789;59.980;30.346;2024-03-23T08:15:19;98991.09;;;3.38;100.00
66021;BME280;52789;59.980;30.346;2024-03-23T08:17:45;98996.81;;;3.25;100.00
66021;BME280;52789;59.980;30.346;2024-03-23T08:20:10;98999.09;;;3.20;100.00
66021;BME280;52789;59.980;30.346;2024-03-23T08:22:35;99003.72;;;3.26;100.00
66021;BME280;52789;59.980;30.346;2024-03-23T08:25:01;99011.28;;;3.29;100.00
66021;BME280;52789;59.980;30.346;2024-03-23T08:27:27;99012.59;;;3.25;100.00
66021;BME280;52789;59.980;30.346;2024-03-23T08:29:53;99009.63;;;3.28;100.00
66021;BME280;52789;59.980;30.346;2024-03-23T08:32:18;99022.44;;;3.23;100.00
66021;BME280;52789;59.980;30.346;2024-03-23T08:34:43;99019.66;;;3.25;100.00
66021;BME280;52789;59.980;30.346;2024-03-23T08:37:09;99026.00;;;3.14;100.00
66021;BME280;52789;59.980;30.346;2024-03-23T08:39:34;99032.56;;;3.10;100.00
66021;BME280;52789;59.980;30.346;2024-03-23T08:41:59;99024.00;;;3.08;100.00
66021;BME280;52789;59.980;30.346;2024-03-23T08:44:25;99037.50;;;3.13;100.00
66021;BME280;52789;59.980;30.346;2024-03-23T08:46:50;99028.97;;;3.11;100.00
66021;BME280;52789;59.980;30.346;2024-03-23T08:49:15;99028.44;;;3.07;100.00
66021;BME280;52789;59.980;30.346;2024-03-23T08:51:41;99028.44;;;3.07;100.00
66021;BME280;52789;59.980;30.346;2024-03-23T08:54:06;99035.50;;;3.07;100.00
66021;BME280;52789;59.980;30.346;2024-03-23T08:56:31;99038.50;;;3.12;100.00
66021;BME280;52789;59.980;30.346;2024-03-23T08:58:57;99033.56;;;3.09;100.00
66021;BME280;52789;59.980;30.346;2024-03-23T09:01:22;99023.75;;;3.19;100.00
66021;BME280;52789;59.980;30.346;2024-03-23T09:03:48;99037.41;;;3.23;100.00
66021;BME280;52789;59.980;30.346;2024-03-23T09:06:14;99038.25;;;3.23;100.00
66021;BME280;52789;59.980;30.346;2024-03-23T09:08:39;99039.56;;;3.27;100.00
66021;BME280;52789;59.980;30.346;2024-03-23T09:11:12;99037.59;;;3.29;100.00
66021;BME280;52789;59.980;30.346;2024-03-23T09:13:38;99041.88;;;3.30;100.00
66021;BME280;52789;59.980;30.346;2024-03-23T09:16:04;99044.81;;;3.27;100.00
66021;BME280;52789;59.980;30.346;2024-03-23T09:18:33;99047.72;;;3.16;100.00
66021;BME280;52789;59.980;30.346;2024-03-23T09:21:00;99058.56;;;3.13;100.00
66021;BME280;52789;59.980;30.346;2024-03-23T09:23:25;99044.72;;;3.11;100.00
66021;BME280;52789;59.980;30.346;2024-03-23T09:25:52;99048.66;;;3.07;100.00
66021;BME280;52789;59.980;30.346;2024-03-23T09:28:18;99060.84;;;3.08;100.00
66021;BME280;52789;59.980;30.346;2024-03-23T09:30:43;99068.16;;;3.22;100.00
66021;BME280;52789;59.980;30.346;2024-03-23T09:33:09;99066.34;;;3.23;100.00
66021;BME280;52789;59.980;30.346;2024-03-23T09:35:38;99086.41;;;3.24;100.00
66021;BME280;52789;59.980;30.346;2024-03-23T09:38:04;99073.97;;;3.08;100.00
66021;BME280;52789;59.980;30.346;2024-03-23T09:40:29;99084.84;;;3.13;100.00
66021;BME280;52789;59.980;30.346;2024-03-23T09:42:54;99081.56;;;3.11;100.00
66021;BME280;52789;59.980;30.346;2024-03-23T09:45:21;99085.31;;;3.08;100.00
66021;BME280;52789;59.980;30.346;2024-03-23T09:47:46;99074.97;;;3.07;100.00
66021;BME280;52789;59.980;30.346;2024-03-23T09:50:12;99086.13;;;3.01;100.00
66021;BME280;52789;59.980;30.346;2024-03-23T09:52:38;99084.97;;;3.03;100.00
66021;BME280;52789;59.980;30.346;2024-03-23T09:55:04;99095.53;;;3.11;100.00
66021;BME280;52789;59.980;30.346;2024-03-23T09:57:29;99096.72;;;3.17;100.00
66021;BME280;52789;59.980;30.346;2024-03-23T09:59:54;99100.63;;;3.13;100.00
66021;BME280;52789;59.980;30.346;2024-03-23T10:02:21;99107.22;;;3.17;100.00
66021;BME280;52789;59.980;30.346;2024-03-23T10:04:47;99101.22;;;3.25;100.00
66021;BME280;52789;59.980;30.346;2024-03-23T10:07:14;99101.31;;;3.15;100.00
66021;BME280;52789;59.980;30.346;2024-03-23T10:09:39;99111.06;;;3.23;100.00
66021;BME280;52789;59.980;30.346;2024-03-23T10:12:08;99115.50;;;3.22;100.00
66021;BME280;52789;59.980;30.346;2024-03-23T10:14:34;99111.59;;;3.26;100.00
66021;BME280;52789;59.980;30.346;2024-03-23T10:17:21;99122.41;;;3.23;100.00
66021;BME280;52789;59.980;30.346;2024-03-23T10:19:45;99125.22;;;3.22;100.00
66021;BME280;52789;59.980;30.346;2024-03-23T10:22:13;99127.09;;;3.11;100.00
66021;BME280;52789;59.980;30.346;2024-03-23T10:24:38;99120.84;;;3.13;100.00
66021;BME280;52789;59.980;30.346;2024-03-23T10:27:05;99127.06;;;3.29;100.00
66021;BME280;52789;59.980;30.346;2024-03-23T10:29:30;99130.34;;;3.31;100.00
66021;BME280;52789;59.980;30.346;2024-03-23T10:32:07;99134.97;;;3.37;100.00
66021;BME280;52789;59.980;30.346;2024-03-23T10:34:32;99139.63;;;3.43;100.00
66021;BME280;52789;59.980;30.346;2024-03-23T10:36:58;99134.72;;;3.49;100.00
66021;BME280;52789;59.980;30.346;2024-03-23T10:39:23;99138.69;;;3.53;100.00
66021;BME280;52789;59.980;30.346;2024-03-23T10:41:49;99144.97;;;3.60;100.00
66021;BME280;52789;59.980;30.346;2024-03-23T10:44:16;99155.50;;;3.60;100.00
66021;BME280;52789;59.980;30.346;2024-03-23T10:46:44;99150.06;;;3.53;100.00
66021;BME280;52789;59.980;30.346;2024-03-23T10:49:10;99146.66;;;3.35;100.00
66021;BME280;52789;59.980;30.346;2024-03-23T10:51:35;99152.59;;;3.37;100.00
66021;BME280;52789;59.980;30.346;2024-03-23T10:54:04;99152.94;;;3.42;100.00
66021;BME280;52789;59.980;30.346;2024-03-23T10:56:30;99151.78;;;3.45;100.00
66021;BME280;52789;59.980;30.346;2024-03-23T10:58:59;99160.66;;;3.43;100.00
66021;BME280;52789;59.980;30.346;2024-03-23T11:01:29;99154.59;;;3.43;100.00
66021;BME280;52789;59.980;30.346;2024-03-23T11:03:54;99164.44;;;3.41;100.00
66021;BME280;52789;59.980;30.346;2024-03-23T11:06:37;99154.13;;;3.48;100.00
66021;BME280;52789;59.980;30.346;2024-03-23T11:09:03;99161.72;;;3.51;100.00
66021;BME280;52789;59.980;30.346;2024-03-23T11:11:28;99160.34;;;3.47;100.00
66021;BME280;52789;59.980;30.346;2024-03-23T11:13:56;99162.63;;;3.41;100.00
66021;BME280;52789;59.980;30.346;2024-03-23T11:16:25;99158.50;;;3.39;100.00
66021;BME280;52789;59.980;30.346;2024-03-23T11:21:53;99161.50;;;3.44;100.00
66021;BME280;52789;59.980;30.346;2024-03-23T11:24:19;99173.47;;;3.38;100.00
66021;BME280;52789;59.980;30.346;2024-03-23T11:26:46;99165.22;;;3.33;100.00
66021;BME280;52789;59.980;30.346;2024-03-23T11:29:12;99168.22;;;3.38;100.00
66021;BME280;52789;59.980;30.346;2024-03-23T11:31:38;99177.81;;;3.48;100.00
66021;BME280;52789;59.980;30.346;2024-03-23T11:34:06;99185.84;;;3.46;100.00
66021;BME280;52789;59.980;30.346;2024-03-23T11:36:32;99188.34;;;3.48;100.00
66021;BME280;52789;59.980;30.346;2024-03-23T11:38:57;99176.84;;;3.49;100.00
66021;BME280;52789;59.980;30.346;2024-03-23T11:41:22;99187.88;;;3.52;100.00
66021;BME280;52789;59.980;30.346;2024-03-23T11:43:48;99192.16;;;3.53;100.00
66021;BME280;52789;59.980;30.346;2024-03-23T11:46:21;99192.50;;;3.58;100.00
66021;BME280;52789;59.980;30.346;2024-03-23T11:48:50;99190.06;;;3.65;100.00
66021;BME280;52789;59.980;30.346;2024-03-23T11:51:16;99185.31;;;3.68;100.00
66021;BME280;52789;59.980;30.346;2024-03-23T11:53:42;99192.47;;;3.76;100.00
66021;BME280;52789;59.980;30.346;2024-03-23T11:56:07;99191.09;;;3.72;100.00
66021;BME280;52789;59.980;30.346;2024-03-23T11:58:34;99204.22;;;3.64;100.00
66021;BME280;52789;59.980;30.346;2024-03-23T12:01:00;99194.28;;;3.50;100.00
66021;BME280;52789;59.980;30.346;2024-03-23T12:03:30;99197.91;;;3.49;100.00
66021;BME280;52789;59.980;30.346;2024-03-23T12:06:00;99204.97;;;3.48;100.00
66021;BME280;52789;59.980;30.346;2024-03-23T12:08:30;99208.88;;;3.44;100.00
66021;BME280;52789;59.980;30.346;2024-03-23T12:11:12;99204.44;;;3.45;100.00
66021;BME280;52789;59.980;30.346;2024-03-23T12:13:38;99197.81;;;3.40;100.00
66021;BME280;52789;59.980;30.346;2024-03-23T12:16:10;99204.69;;;3.33;100.00
66021;BME280;52789;59.980;30.346;2024-03-23T12:18:39;99208.00;;;3.35;100.00
66021;BME280;52789;59.980;30.346;2024-03-23T12:21:05;99215.53;;;3.30;100.00
66021;BME280;52789;59.980;30.346;2024-03-23T12:23:31;99212.44;;;3.35;100.00
66021;BME280;52789;59.980;30.346;2024-03-23T12:25:59;99213.31;;;3.43;100.00
66021;BME280;52789;59.980;30.346;2024-03-23T12:28:24;99221.88;;;3.46;100.00
66021;BME280;52789;59.980;30.346;2024-03-23T12:30:50;99224.75;;;3.34;100.00
66021;BME280;52789;59.980;30.346;2024-03-23T12:33:16;99223.72;;;3.27;100.00
66021;BME280;52789;59.980;30.346;2024-03-23T12:35:41;99214.56;;;3.31;100.00
66021;BME280;52789;59.980;30.346;2024-03-23T12:38:06;99221.66;;;3.39;100.00
66021;BME280;52789;59.980;30.346;2024-03-23T12:40:32;99226.94;;;3.39;100.00
66021;BME280;52789;59.980;30.346;2024-03-23T12:42:57;99220.88;;;3.47;100.00
66021;BME280;52789;59.980;30.346;2024-03-23T12:45:23;99217.19;;;3.57;100.00
66021;BME280;52789;59.980;30.346;2024-03-23T12:47:48;99224.56;;;3.54;100.00
66021;BME280;52789;59.980;30.346;2024-03-23T12:50:13;99225.19;;;3.48;100.00
66021;BME280;52789;59.980;30.346;2024-03-23T12:52:39;99236.75;;;3.55;100.00
66021;BME280;52789;59.980;30.346;2024-03-23T12:55:04;99239.69;;;3.52;100.00
66021;BME280;52789;59.980;30.346;2024-03-23T12:57:33;99243.75;;;3.46;100.00
66021;BME280;52789;59.980;30.346;2024-03-23T12:59:58;99243.22;;;3.42;100.00
66021;BME280;52789;59.980;30.346;2024-03-23T13:02:24;99252.94;;;3.42;100.00
66021;BME280;52789;59.980;30.346;2024-03-23T13:04:49;99249.00;;;3.46;100.00
66021;BME280;52789;59.980;30.346;2024-03-23T13:07:15;99252.13;;;3.41;100.00
66021;BME280;52789;59.980;30.346;2024-03-23T13:09:41;99248.81;;;3.39;100.00
66021;BME280;52789;59.980;30.346;2024-03-23T13:12:06;99250.16;;;3.43;100.00
66021;BME280;52789;59.980;30.346;2024-03-23T13:14:32;99259.25;;;3.49;100.00
66021;BME280;52789;59.980;30.346;2024-03-23T13:16:57;99255.34;;;3.53;100.00
66021;BME280;52789;59.980;30.346;2024-03-23T13:19:23;99255.41;;;3.43;100.00
66021;BME280;52789;59.980;30.346;2024-03-23T13:21:53;99257.38;;;3.41;100.00
66021;BME280;52789;59.980;30.346;2024-03-23T13:24:21;99260.97;;;3.40;100.00
66021;BME280;52789;59.980;30.346;2024-03-23T13:26:47;99262.47;;;3.43;100.00
66021;BME280;52789;59.980;30.346;2024-03-23T13:29:13;99268.88;;;3.40;100.00
66021;BME280;52789;59.980;30.346;2024-03-23T13:31:38;99274.41;;;3.29;100.00
66021;BME280;52789;59.980;30.346;2024-03-23T13:34:03;99268.31;;;3.29;100.00
66021;BME280;52789;59.980;30.346;2024-03-23T13:36:29;99274.69;;;3.26;100.00
66021;BME280;52789;59.980;30.346;2024-03-23T13:38:54;99278.31;;;3.25;100.00
66021;BME280;52789;59.980;30.346;2024-03-23T13:41:19;99280.59;;;3.20;100.00